sensor_id;sensor_type;location;lat;lon;timestamp;pressure;altitude;pressure_sealevel;temperature;humidity
39301;BME280;25019;42.626;23.380;2023-02-19T00:01:20;94711.13;;;6.54;61.71
39301;BME280;25019;42.626;23.380;2023-02-19T00:03:51;94701.84;;;6.45;62.16
39301;BME280;25019;42.626;23.380;2023-02-19T00:06:18;94691.59;;;6.30;62.70
39301;BME280;25019;42.626;23.380;2023-02-19T00:08:44;94706.59;;;6.36;62.47
39301;BME280;25019;42.626;23.380;2023-02-19T00:11:12;94651.16;;;6.11;62.00
39301;BME280;25019;42.626;23.380;2023-02-19T00:13:40;94701.13;;;6.31;62.40
39301;BME280;25019;42.626;23.380;2023-02-19T00:16:14;94648.94;;;6.08;62.47
39301;BME280;25019;42.626;23.380;2023-02-19T00:18:40;94699.41;;;6.43;61.95
39301;BME280;25019;42.626;23.380;2023-02-19T00:21:05;94683.63;;;6.37;62.39
39301;BME280;25019;42.626;23.380;2023-02-19T00:23:31;94672.13;;;6.31;61.92
39301;BME280;25019;42.626;23.380;2023-02-19T00:26:05;94698.19;;;6.46;62.25
39301;BME280;25019;42.626;23.380;2023-02-19T00:28:31;94633.97;;;6.02;62.30
39301;BME280;25019;42.626;23.380;2023-02-19T00:31:08;94570.28;;;5.40;62.75
39301;BME280;25019;42.626;23.380;2023-02-19T00:33:34;94662.34;;;6.06;62.77
39301;BME280;25019;42.626;23.380;2023-02-19T00:36:01;94591.41;;;5.66;63.21
39301;BME280;25019;42.626;23.380;2023-02-19T00:38:26;94634.47;;;5.85;63.26
39301;BME280;25019;42.626;23.380;2023-02-19T00:40:52;94614.03;;;5.80;62.85
39301;BME280;25019;42.626;23.380;2023-02-19T00:43:19;94570.06;;;5.42;63.30
39301;BME280;25019;42.626;23.380;2023-02-19T00:45:44;94675.13;;;6.09;62.71
39301;BME280;25019;42.626;23.380;2023-02-19T00:48:10;94678.53;;;6.10;63.53
39301;BME280;25019;42.626;23.380;2023-02-19T00:50:36;94678.38;;;6.05;63.98
39301;BME280;25019;42.626;23.380;2023-02-19T00:53:02;94646.19;;;5.89;63.92
39301;BME280;25019;42.626;23.380;2023-02-19T00:55:27;94675.13;;;6.03;63.91
39301;BME280;25019;42.626;23.380;2023-02-19T00:57:53;94664.00;;;5.94;63.97
39301;BME280;25019;42.626;23.380;2023-02-19T01:00:19;94655.28;;;6.00;64.13
39301;BME280;25019;42.626;23.380;2023-02-19T01:02:44;94618.28;;;5.75;64.20
39301;BME280;25019;42.626;23.380;2023-02-19T01:05:10;94635.13;;;5.74;64.70
39301;BME280;25019;42.626;23.380;2023-02-19T01:07:36;94633.72;;;5.71;64.73
39301;BME280;25019;42.626;23.380;2023-02-19T01:10:03;94659.97;;;5.91;64.88
39301;BME280;25019;42.626;23.380;2023-02-19T01:12:29;94607.31;;;5.52;64.75
39301;BME280;25019;42.626;23.380;2023-02-19T01:14:56;94630.59;;;5.55;65.78
39301;BME280;25019;42.626;23.380;2023-02-19T01:17:21;94648.63;;;5.52;65.77
39301;BME280;25019;42.626;23.380;2023-02-19T01:19:47;94653.66;;;5.60;65.35
39301;BME280;25019;42.626;23.380;2023-02-19T01:22:13;94643.09;;;5.67;65.65
39301;BME280;25019;42.626;23.380;2023-02-19T01:24:39;94650.59;;;5.63;65.16
39301;BME280;25019;42.626;23.380;2023-02-19T01:27:04;94594.59;;;5.36;65.37
39301;BME280;25019;42.626;23.380;2023-02-19T01:29:30;94648.16;;;5.68;65.27
39301;BME280;25019;42.626;23.380;2023-02-19T01:31:56;94611.00;;;5.38;64.90
39301;BME280;25019;42.626;23.380;2023-02-19T01:34:21;94663.38;;;5.66;65.10
39301;BME280;25019;42.626;23.380;2023-02-19T01:36:47;94683.22;;;5.69;65.56
39301;BME280;25019;42.626;23.380;2023-02-19T01:39:13;94656.00;;;5.36;66.38
39301;BME280;25019;42.626;23.380;2023-02-19T01:41:40;94639.25;;;5.17;66.31
39301;BME280;25019;42.626;23.380;2023-02-19T01:46:51;94681.50;;;5.43;66.08
39301;BME280;25019;42.626;23.380;2023-02-19T01:49:27;94699.69;;;5.51;66.15
39301;BME280;25019;42.626;23.380;2023-02-19T01:54:24;94675.91;;;5.19;66.33
39301;BME280;25019;42.626;23.380;2023-02-19T01:56:53;94723.44;;;5.44;66.38
39301;BME280;25019;42.626;23.380;2023-02-19T01:59:20;94728.31;;;5.40;66.67
39301;BME280;25019;42.626;23.380;2023-02-19T02:01:47;94705.03;;;5.31;66.69
39301;BME280;25019;42.626;23.380;2023-02-19T02:04:14;94653.91;;;4.93;67.12
39301;BME280;25019;42.626;23.380;2023-02-19T02:06:53;94708.50;;;5.24;67.91
39301;BME280;25019;42.626;23.380;2023-02-19T02:09:21;94671.72;;;4.98;67.36
39301;BME280;25019;42.626;23.380;2023-02-19T02:12:07;94703.69;;;5.15;67.42
39301;BME280;25019;42.626;23.380;2023-02-19T02:14:35;94712.19;;;5.10;68.45
39301;BME280;25019;42.626;23.380;2023-02-19T02:17:14;94705.72;;;4.99;68.46
39301;BME280;25019;42.626;23.380;2023-02-19T02:22:27;94697.66;;;4.80;69.26
39301;BME280;25019;42.626;23.380;2023-02-19T02:35:33;94704.16;;;4.85;69.46
39301;BME280;25019;42.626;23.380;2023-02-19T02:38:06;94665.09;;;4.68;69.63
39301;BME280;25019;42.626;23.380;2023-02-19T02:40:34;94698.06;;;4.98;69.35
39301;BME280;25019;42.626;23.380;2023-02-19T02:43:01;94674.38;;;4.84;69.04
39301;BME280;25019;42.626;23.380;2023-02-19T02:45:31;94702.47;;;5.04;68.62
39301;BME280;25019;42.626;23.380;2023-02-19T02:50:49;94663.88;;;4.77;69.81
39301;BME280;25019;42.626;23.380;2023-02-19T02:56:10;94669.50;;;4.94;69.32
39301;BME280;25019;42.626;23.380;2023-02-19T02:58:37;94634.34;;;4.69;69.00
39301;BME280;25019;42.626;23.380;2023-02-19T03:01:11;94611.66;;;4.61;69.08
39301;BME280;25019;42.626;23.380;2023-02-19T03:04:01;94691.72;;;5.12;68.90
39301;BME280;25019;42.626;23.380;2023-02-19T03:06:30;94689.28;;;5.17;68.47
39301;BME280;25019;42.626;23.380;2023-02-19T03:09:11;94699.78;;;5.24;68.41
39301;BME280;25019;42.626;23.380;2023-02-19T03:11:43;94694.78;;;5.16;68.06
39301;BME280;25019;42.626;23.380;2023-02-19T03:14:36;94667.28;;;4.91;68.81
39301;BME280;25019;42.626;23.380;2023-02-19T03:17:27;94704.47;;;5.22;69.05
39301;BME280;25019;42.626;23.380;2023-02-19T03:20:16;94686.91;;;5.02;68.06
39301;BME280;25019;42.626;23.380;2023-02-19T03:22:44;94706.16;;;4.89;69.52
39301;BME280;25019;42.626;23.380;2023-02-19T03:25:24;94680.25;;;4.79;69.59
39301;BME280;25019;42.626;23.380;2023-02-19T03:28:14;94724.75;;;5.01;69.61
39301;BME280;25019;42.626;23.380;2023-02-19T03:30:49;94696.66;;;4.82;69.01
39301;BME280;25019;42.626;23.380;2023-02-19T03:33:27;94720.09;;;4.90;69.52
39301;BME280;25019;42.626;23.380;2023-02-19T03:36:00;94633.94;;;4.38;69.86
39301;BME280;25019;42.626;23.380;2023-02-19T03:41:28;94744.81;;;4.95;69.90
39301;BME280;25019;42.626;23.380;2023-02-19T03:44:15;94746.84;;;4.93;70.59
39301;BME280;25019;42.626;23.380;2023-02-19T03:47:01;94751.28;;;4.93;70.19
39301;BME280;25019;42.626;23.380;2023-02-19T03:55:04;94747.66;;;4.87;70.58
39301;BME280;25019;42.626;23.380;2023-02-19T03:57:52;94751.13;;;4.88;70.16
39301;BME280;25019;42.626;23.380;2023-02-19T04:00:24;94753.75;;;4.88;70.86
39301;BME280;25019;42.626;23.380;2023-02-19T04:02:53;94756.56;;;4.86;70.92
39301;BME280;25019;42.626;23.380;2023-02-19T04:05:25;94758.19;;;4.80;71.78
39301;BME280;25019;42.626;23.380;2023-02-19T04:07:55;94766.28;;;4.79;71.20
39301;BME280;25019;42.626;23.380;2023-02-19T04:10:28;94769.53;;;4.74;71.19
39301;BME280;25019;42.626;23.380;2023-02-19T04:13:02;94710.22;;;4.38;71.56
39301;BME280;25019;42.626;23.380;2023-02-19T04:15:33;94778.22;;;4.75;71.56
39301;BME280;25019;42.626;23.380;2023-02-19T04:18:03;94782.06;;;4.72;71.66
39301;BME280;25019;42.626;23.380;2023-02-19T04:20:33;94647.50;;;3.88;71.77
39301;BME280;25019;42.626;23.380;2023-02-19T04:23:01;94780.44;;;4.71;71.55
39301;BME280;25019;42.626;23.380;2023-02-19T04:25:28;94772.16;;;4.68;71.41
39301;BME280;25019;42.626;23.380;2023-02-19T04:27:54;94708.00;;;4.22;71.67
39301;BME280;25019;42.626;23.380;2023-02-19T04:30:20;94792.00;;;4.63;72.11
39301;BME280;25019;42.626;23.380;2023-02-19T04:32:46;94790.16;;;4.64;72.01
39301;BME280;25019;42.626;23.380;2023-02-19T04:35:11;94780.25;;;4.59;72.31
39301;BME280;25019;42.626;23.380;2023-02-19T04:37:37;94768.31;;;4.57;71.73
39301;BME280;25019;42.626;23.380;2023-02-19T04:40:03;94788.75;;;4.68;72.18
39301;BME280;25019;42.626;23.380;2023-02-19T04:42:28;94781.88;;;4.60;71.92
39301;BME280;25019;42.626;23.380;2023-02-19T04:44:54;94747.03;;;4.31;71.61
39301;BME280;25019;42.626;23.380;2023-02-19T04:47:20;94798.03;;;4.64;71.45
39301;BME280;25019;42.626;23.380;2023-02-19T04:49:46;94765.66;;;4.50;72.07
39301;BME280;25019;42.626;23.380;2023-02-19T04:52:11;94789.75;;;4.60;71.57
39301;BME280;25019;42.626;23.380;2023-02-19T04:54:37;94772.94;;;4.48;72.21
39301;BME280;25019;42.626;23.380;2023-02-19T04:57:03;94783.69;;;4.60;71.93
39301;BME280;25019;42.626;23.380;2023-02-19T04:59:28;94693.59;;;3.97;72.17
39301;BME280;25019;42.626;23.380;2023-02-19T05:01:54;94795.00;;;4.60;72.39
39301;BME280;25019;42.626;23.380;2023-02-19T05:04:21;94736.28;;;4.26;72.25
39301;BME280;25019;42.626;23.380;2023-02-19T05:06:48;94795.22;;;4.65;71.68
39301;BME280;25019;42.626;23.380;2023-02-19T05:09:14;94797.66;;;4.67;71.27
39301;BME280;25019;42.626;23.380;2023-02-19T05:11:39;94705.94;;;4.03;71.54
39301;BME280;25019;42.626;23.380;2023-02-19T05:14:05;94801.91;;;4.61;71.76
39301;BME280;25019;42.626;23.380;2023-02-19T05:16:31;94806.75;;;4.64;72.07
39301;BME280;25019;42.626;23.380;2023-02-19T05:18:57;94678.81;;;3.76;71.94
39301;BME280;25019;42.626;23.380;2023-02-19T05:21:23;94805.75;;;4.59;71.72
39301;BME280;25019;42.626;23.380;2023-02-19T05:23:49;94805.94;;;4.57;72.04
39301;BME280;25019;42.626;23.380;2023-02-19T05:26:24;94798.66;;;4.59;71.85
39301;BME280;25019;42.626;23.380;2023-02-19T05:28:52;94810.41;;;4.77;71.27
39301;BME280;25019;42.626;23.380;2023-02-19T05:31:18;94797.25;;;4.70;71.00
39301;BME280;25019;42.626;23.380;2023-02-19T05:33:44;94808.41;;;4.86;71.08
39301;BME280;25019;42.626;23.380;2023-02-19T05:36:14;94820.72;;;4.92;70.89
39301;BME280;25019;42.626;23.380;2023-02-19T05:38:40;94824.19;;;4.99;71.30
39301;BME280;25019;42.626;23.380;2023-02-19T05:41:17;94824.59;;;5.09;70.31
39301;BME280;25019;42.626;23.380;2023-02-19T05:43:45;94819.09;;;5.38;71.48
39301;BME280;25019;42.626;23.380;2023-02-19T05:46:12;94798.97;;;5.64;70.57
39301;BME280;25019;42.626;23.380;2023-02-19T05:48:39;94817.50;;;6.09;69.59
39301;BME280;25019;42.626;23.380;2023-02-19T05:51:06;94810.81;;;6.45;67.56
39301;BME280;25019;42.626;23.380;2023-02-19T05:53:33;94815.00;;;6.60;67.04
39301;BME280;25019;42.626;23.380;2023-02-19T05:55:58;94819.38;;;7.05;65.29
39301;BME280;25019;42.626;23.380;2023-02-19T05:58:24;94816.09;;;7.28;64.26
39301;BME280;25019;42.626;23.380;2023-02-19T06:00:51;94793.59;;;7.26;63.58
39301;BME280;25019;42.626;23.380;2023-02-19T06:03:16;94813.28;;;7.48;62.75
39301;BME280;25019;42.626;23.380;2023-02-19T06:05:42;94824.09;;;7.65;61.81
39301;BME280;25019;42.626;23.380;2023-02-19T06:08:11;94834.31;;;7.80;61.37
39301;BME280;25019;42.626;23.380;2023-02-19T06:10:37;94838.81;;;7.99;61.03
39301;BME280;25019;42.626;23.380;2023-02-19T06:13:06;94844.59;;;8.07;60.27
39301;BME280;25019;42.626;23.380;2023-02-19T06:15:32;94749.06;;;7.48;59.93
39301;BME280;25019;42.626;23.380;2023-02-19T06:17:58;94839.53;;;8.24;59.40
39301;BME280;25019;42.626;23.380;2023-02-19T06:20:24;94840.50;;;8.42;59.13
39301;BME280;25019;42.626;23.380;2023-02-19T06:22:50;94840.81;;;8.52;58.71
39301;BME280;25019;42.626;23.380;2023-02-19T06:25:16;94836.59;;;8.63;58.48
39301;BME280;25019;42.626;23.380;2023-02-19T06:27:42;94818.97;;;8.57;58.28
39301;BME280;25019;42.626;23.380;2023-02-19T06:30:08;94775.13;;;8.31;58.14
39301;BME280;25019;42.626;23.380;2023-02-19T06:32:34;94783.25;;;8.48;57.56
39301;BME280;25019;42.626;23.380;2023-02-19T06:35:00;94841.75;;;8.89;57.81
39301;BME280;25019;42.626;23.380;2023-02-19T06:37:25;94841.31;;;8.92;57.58
39301;BME280;25019;42.626;23.380;2023-02-19T06:39:51;94824.34;;;8.81;57.70
39301;BME280;25019;42.626;23.380;2023-02-19T06:42:17;94842.44;;;8.96;57.48
39301;BME280;25019;42.626;23.380;2023-02-19T06:44:42;94830.34;;;8.88;57.52
39301;BME280;25019;42.626;23.380;2023-02-19T06:47:08;94844.66;;;8.99;57.44
39301;BME280;25019;42.626;23.380;2023-02-19T06:49:33;94838.31;;;9.00;57.25
39301;BME280;25019;42.626;23.380;2023-02-19T06:51:59;94847.22;;;9.06;57.03
39301;BME280;25019;42.626;23.380;2023-02-19T06:54:26;94846.84;;;9.02;57.07
39301;BME280;25019;42.626;23.380;2023-02-19T06:56:52;94845.91;;;8.96;57.49
39301;BME280;25019;42.626;23.380;2023-02-19T06:59:17;94852.38;;;9.01;57.45
39301;BME280;25019;42.626;23.380;2023-02-19T07:01:44;94852.72;;;9.04;57.72
39301;BME280;25019;42.626;23.380;2023-02-19T07:04:10;94743.50;;;8.36;57.60
39301;BME280;25019;42.626;23.380;2023-02-19T07:06:36;94856.88;;;9.12;57.52
39301;BME280;25019;42.626;23.380;2023-02-19T07:09:04;94778.94;;;8.65;57.48
39301;BME280;25019;42.626;23.380;2023-02-19T07:11:31;94852.06;;;9.21;57.36
39301;BME280;25019;42.626;23.380;2023-02-19T07:13:59;94849.06;;;9.29;57.11
39301;BME280;25019;42.626;23.380;2023-02-19T07:16:25;94851.63;;;9.36;57.04
39301;BME280;25019;42.626;23.380;2023-02-19T07:18:52;94854.19;;;9.42;56.63
39301;BME280;25019;42.626;23.380;2023-02-19T07:21:18;94846.56;;;9.46;56.43
39301;BME280;25019;42.626;23.380;2023-02-19T07:23:43;94828.13;;;9.39;56.35
39301;BME280;25019;42.626;23.380;2023-02-19T07:26:14;94833.19;;;9.53;56.00
39301;BME280;25019;42.626;23.380;2023-02-19T07:28:41;94769.22;;;9.13;56.08
39301;BME280;25019;42.626;23.380;2023-02-19T07:31:07;94817.72;;;9.50;55.49
39301;BME280;25019;42.626;23.380;2023-02-19T07:33:33;94825.00;;;9.54;55.31
39301;BME280;25019;42.626;23.380;2023-02-19T07:35:59;94819.13;;;9.52;55.06
39301;BME280;25019;42.626;23.380;2023-02-19T07:38:25;94748.25;;;9.12;55.39
39301;BME280;25019;42.626;23.380;2023-02-19T07:40:51;94823.59;;;9.64;55.26
39301;BME280;25019;42.626;23.380;2023-02-19T07:43:17;94693.88;;;8.86;55.16
39301;BME280;25019;42.626;23.380;2023-02-19T07:45:44;94811.16;;;9.64;54.79
39301;BME280;25019;42.626;23.380;2023-02-19T07:48:09;94823.97;;;9.79;54.98
39301;BME280;25019;42.626;23.380;2023-02-19T07:50:35;94828.34;;;9.85;54.57
39301;BME280;25019;42.626;23.380;2023-02-19T07:53:00;94826.34;;;9.93;54.62
39301;BME280;25019;42.626;23.380;2023-02-19T07:55:26;94824.38;;;10.00;54.21
39301;BME280;25019;42.626;23.380;2023-02-19T07:57:52;94806.28;;;9.97;54.48
39301;BME280;25019;42.626;23.380;2023-02-19T08:00:17;94818.00;;;10.13;54.07
39301;BME280;25019;42.626;23.380;2023-02-19T08:02:45;94815.00;;;10.21;53.74
39301;BME280;25019;42.626;23.380;2023-02-19T08:05:33;94768.66;;;10.00;53.50
39301;BME280;25019;42.626;23.380;2023-02-19T08:08:01;94798.69;;;10.29;53.47
39301;BME280;25019;42.626;23.380;2023-02-19T08:10:27;94816.09;;;10.49;53.06
39301;BME280;25019;42.626;23.380;2023-02-19T08:13:12;94812.22;;;10.57;52.84
39301;BME280;25019;42.626;23.380;2023-02-19T08:18:21;94794.81;;;10.78;52.07
39301;BME280;25019;42.626;23.380;2023-02-19T08:20:47;94799.66;;;10.81;51.89
39301;BME280;25019;42.626;23.380;2023-02-19T08:23:13;94806.50;;;10.94;51.66
39301;BME280;25019;42.626;23.380;2023-02-19T08:25:39;94803.69;;;11.01;51.61
39301;BME280;25019;42.626;23.380;2023-02-19T08:28:07;94755.53;;;10.80;50.92
39301;BME280;25019;42.626;23.380;2023-02-19T08:30:34;94815.00;;;11.25;51.00
39301;BME280;25019;42.626;23.380;2023-02-19T08:33:01;94807.06;;;11.30;50.20
39301;BME280;25019;42.626;23.380;2023-02-19T08:35:27;94817.31;;;11.38;50.21
39301;BME280;25019;42.626;23.380;2023-02-19T08:37:58;94817.47;;;11.49;50.19
39301;BME280;25019;42.626;23.380;2023-02-19T08:40:25;94760.03;;;11.14;50.06
39301;BME280;25019;42.626;23.380;2023-02-19T08:42:51;94826.47;;;11.65;50.04
39301;BME280;25019;42.626;23.380;2023-02-19T08:45:16;94819.78;;;11.62;49.54
39301;BME280;25019;42.626;23.380;2023-02-19T08:47:42;94816.97;;;11.52;50.29
39301;BME280;25019;42.626;23.380;2023-02-19T08:50:08;94752.28;;;11.29;50.11
39301;BME280;25019;42.626;23.380;2023-02-19T08:52:33;94798.56;;;11.67;50.08
39301;BME280;25019;42.626;23.380;2023-02-19T08:55:00;94812.59;;;11.80;50.09
39301;BME280;25019;42.626;23.380;2023-02-19T08:57:26;94795.69;;;11.69;49.49
39301;BME280;25019;42.626;23.380;2023-02-19T08:59:54;94795.56;;;11.81;49.38
39301;BME280;25019;42.626;23.380;2023-02-19T09:02:22;94795.63;;;11.86;49.29
39301;BME280;25019;42.626;23.380;2023-02-19T09:04:48;94782.75;;;11.78;49.09
39301;BME280;25019;42.626;23.380;2023-02-19T09:07:14;94731.09;;;11.34;49.45
39301;BME280;25019;42.626;23.380;2023-02-19T09:09:40;94784.25;;;11.91;49.33
39301;BME280;25019;42.626;23.380;2023-02-19T09:12:10;94784.06;;;11.97;49.00
39301;BME280;25019;42.626;23.380;2023-02-19T09:14:37;94783.28;;;11.97;49.44
39301;BME280;25019;42.626;23.380;2023-02-19T09:17:05;94767.44;;;12.07;49.42
39301;BME280;25019;42.626;23.380;2023-02-19T09:19:31;94757.97;;;12.17;49.42
39301;BME280;25019;42.626;23.380;2023-02-19T09:21:57;94742.13;;;12.32;49.70
39301;BME280;25019;42.626;23.380;2023-02-19T09:24:23;94760.75;;;12.54;49.98
39301;BME280;25019;42.626;23.380;2023-02-19T09:26:53;94758.44;;;12.63;49.72
39301;BME280;25019;42.626;23.380;2023-02-19T09:29:23;94755.97;;;12.56;49.83
39301;BME280;25019;42.626;23.380;2023-02-19T09:31:48;94695.31;;;12.36;49.43
39301;BME280;25019;42.626;23.380;2023-02-19T09:34:14;94752.94;;;12.75;48.83
39301;BME280;25019;42.626;23.380;2023-02-19T09:36:40;94749.31;;;12.86;48.45
39301;BME280;25019;42.626;23.380;2023-02-19T09:39:07;94749.28;;;12.81;48.23
39301;BME280;25019;42.626;23.380;2023-02-19T09:41:42;94743.47;;;12.89;48.30
39301;BME280;25019;42.626;23.380;2023-02-19T09:44:13;94746.72;;;12.97;47.78
39301;BME280;25019;42.626;23.380;2023-02-19T09:46:46;94745.09;;;12.91;47.69
39301;BME280;25019;42.626;23.380;2023-02-19T09:49:19;94740.31;;;12.98;47.75
39301;BME280;25019;42.626;23.380;2023-02-19T09:51:50;94739.88;;;13.06;47.49
39301;BME280;25019;42.626;23.380;2023-02-19T09:54:23;94748.75;;;13.17;47.12
39301;BME280;25019;42.626;23.380;2023-02-19T09:56:49;94728.78;;;13.19;46.64
39301;BME280;25019;42.626;23.380;2023-02-19T09:59:26;94728.81;;;13.30;46.30
39301;BME280;25019;42.626;23.380;2023-02-19T10:02:06;94727.13;;;13.51;46.21
39301;BME280;25019;42.626;23.380;2023-02-19T10:04:37;94715.13;;;13.54;45.75
39301;BME280;25019;42.626;23.380;2023-02-19T10:07:11;94688.66;;;13.42;45.78
39301;BME280;25019;42.626;23.380;2023-02-19T10:09:37;94708.75;;;13.60;45.28
39301;BME280;25019;42.626;23.380;2023-02-19T10:12:12;94703.75;;;13.74;45.09
39301;BME280;25019;42.626;23.380;2023-02-19T10:14:44;94696.28;;;13.76;44.90
39301;BME280;25019;42.626;23.380;2023-02-19T10:17:22;94692.84;;;13.86;45.41
39301;BME280;25019;42.626;23.380;2023-02-19T10:19:50;94680.34;;;13.91;44.93
39301;BME280;25019;42.626;23.380;2023-02-19T10:22:17;94682.75;;;13.98;44.68
39301;BME280;25019;42.626;23.380;2023-02-19T10:24:43;94672.09;;;14.03;44.59
39301;BME280;25019;42.626;23.380;2023-02-19T10:27:12;94679.28;;;13.98;44.57
39301;BME280;25019;42.626;23.380;2023-02-19T10:29:37;94668.34;;;14.09;44.45
39301;BME280;25019;42.626;23.380;2023-02-19T10:32:18;94661.72;;;14.17;44.40
39301;BME280;25019;42.626;23.380;2023-02-19T10:34:46;94655.28;;;14.08;43.73
39301;BME280;25019;42.626;23.380;2023-02-19T10:37:16;94652.34;;;14.04;43.91
39301;BME280;25019;42.626;23.380;2023-02-19T10:39:45;94649.13;;;14.02;43.83
39301;BME280;25019;42.626;23.380;2023-02-19T10:42:21;94651.81;;;14.18;43.67
39301;BME280;25019;42.626;23.380;2023-02-19T10:44:55;94645.91;;;14.11;43.80
39301;BME280;25019;42.626;23.380;2023-02-19T10:47:24;94630.44;;;14.02;43.98
39301;BME280;25019;42.626;23.380;2023-02-19T10:49:51;94620.81;;;13.96;43.96
39301;BME280;25019;42.626;23.380;2023-02-19T10:52:25;94595.34;;;13.68;43.84
39301;BME280;25019;42.626;23.380;2023-02-19T10:54:55;94628.22;;;13.84;44.18
39301;BME280;25019;42.626;23.380;2023-02-19T10:57:27;94618.13;;;13.91;44.18
39301;BME280;25019;42.626;23.380;2023-02-19T11:00:18;94605.88;;;14.00;43.82
39301;BME280;25019;42.626;23.380;2023-02-19T11:02:44;94606.97;;;14.25;44.03
39301;BME280;25019;42.626;23.380;2023-02-19T11:07:45;94588.50;;;14.54;43.57
39301;BME280;25019;42.626;23.380;2023-02-19T11:10:20;94585.84;;;14.54;42.93
39301;BME280;25019;42.626;23.380;2023-02-19T11:12:49;94586.13;;;14.74;42.31
39301;BME280;25019;42.626;23.380;2023-02-19T11:15:35;94577.84;;;14.44;42.49
39301;BME280;25019;42.626;23.380;2023-02-19T11:20:49;94581.59;;;14.69;42.08
39301;BME280;25019;42.626;23.380;2023-02-19T11:23:32;94573.81;;;14.67;42.48
39301;BME280;25019;42.626;23.380;2023-02-19T11:26:03;94557.00;;;14.72;42.56
39301;BME280;25019;42.626;23.380;2023-02-19T11:31:22;94559.91;;;14.86;41.82
39301;BME280;25019;42.626;23.380;2023-02-19T11:34:22;94558.59;;;14.63;41.86
39301;BME280;25019;42.626;23.380;2023-02-19T11:36:40;94553.53;;;14.61;41.87
39301;BME280;25019;42.626;23.380;2023-02-19T12:12:27;94489.28;;;14.97;41.17
39301;BME280;25019;42.626;23.380;2023-02-19T12:44:46;94428.63;;;15.38;40.58
39301;BME280;25019;42.626;23.380;2023-02-19T12:47:23;94425.94;;;15.38;40.87
39301;BME280;25019;42.626;23.380;2023-02-19T12:50:17;94423.25;;;15.43;40.11
39301;BME280;25019;42.626;23.380;2023-02-19T12:52:46;94345.19;;;14.91;40.20
39301;BME280;25019;42.626;23.380;2023-02-19T12:55:21;94408.25;;;15.42;39.53
39301;BME280;25019;42.626;23.380;2023-02-19T12:57:49;94403.97;;;15.46;39.65
39301;BME280;25019;42.626;23.380;2023-02-19T13:00:26;94402.81;;;15.52;39.79
39301;BME280;25019;42.626;23.380;2023-02-19T13:03:27;94393.16;;;15.56;39.97
39301;BME280;25019;42.626;23.380;2023-02-19T13:06:00;94377.41;;;15.55;40.56
39301;BME280;25019;42.626;23.380;2023-02-19T13:08:37;94385.09;;;15.62;39.47
39301;BME280;25019;42.626;23.380;2023-02-19T13:11:36;94377.25;;;15.70;39.49
39301;BME280;25019;42.626;23.380;2023-02-19T13:14:35;94370.84;;;15.66;39.63
39301;BME280;25019;42.626;23.380;2023-02-19T13:17:20;94369.75;;;15.72;38.58
39301;BME280;25019;42.626;23.380;2023-02-19T13:19:49;94365.78;;;15.65;38.77
39301;BME280;25019;42.626;23.380;2023-02-19T13:22:30;94358.25;;;15.72;38.66
39301;BME280;25019;42.626;23.380;2023-02-19T13:25:18;94363.69;;;15.62;39.29
39301;BME280;25019;42.626;23.380;2023-02-19T13:28:25;94357.06;;;15.83;39.58
39301;BME280;25019;42.626;23.380;2023-02-19T13:31:09;94355.75;;;15.86;38.68
39301;BME280;25019;42.626;23.380;2023-02-19T13:36:41;94346.63;;;16.11;38.58
39301;BME280;25019;42.626;23.380;2023-02-19T13:39:06;94339.94;;;16.14;38.36
39301;BME280;25019;42.626;23.380;2023-02-19T13:41:40;94341.53;;;16.15;38.25
39301;BME280;25019;42.626;23.380;2023-02-19T13:44:15;94342.63;;;16.33;38.16
39301;BME280;25019;42.626;23.380;2023-02-19T13:46:43;94342.84;;;16.42;37.89
39301;BME280;25019;42.626;23.380;2023-02-19T13:51:49;94325.66;;;16.18;37.11
39301;BME280;25019;42.626;23.380;2023-02-19T13:54:34;94247.50;;;15.63;37.08
39301;BME280;25019;42.626;23.380;2023-02-19T13:59:43;94300.19;;;15.97;37.59
39301;BME280;25019;42.626;23.380;2023-02-19T14:02:24;94264.34;;;15.63;38.25
39301;BME280;25019;42.626;23.380;2023-02-19T14:09:51;94244.88;;;15.57;38.74
39301;BME280;25019;42.626;23.380;2023-02-19T14:12:20;94296.31;;;16.08;38.36
39301;BME280;25019;42.626;23.380;2023-02-19T14:22:50;94306.28;;;16.27;38.05
39301;BME280;25019;42.626;23.380;2023-02-19T14:27:53;94286.34;;;16.57;37.62
39301;BME280;25019;42.626;23.380;2023-02-19T14:30:22;94291.00;;;16.71;37.23
39301;BME280;25019;42.626;23.380;2023-02-19T14:32:49;94284.44;;;16.77;37.42
39301;BME280;25019;42.626;23.380;2023-02-19T14:35:26;94287.72;;;16.93;38.16
39301;BME280;25019;42.626;23.380;2023-02-19T14:37:55;94222.88;;;16.72;38.36
39301;BME280;25019;42.626;23.380;2023-02-19T14:40:39;94289.97;;;17.24;37.48
39301;BME280;25019;42.626;23.380;2023-02-19T14:43:18;94284.41;;;17.20;37.66
39301;BME280;25019;42.626;23.380;2023-02-19T14:48:20;94281.53;;;16.98;37.23
39301;BME280;25019;42.626;23.380;2023-02-19T14:50:50;94276.06;;;16.84;37.42
39301;BME280;25019;42.626;23.380;2023-02-19T14:53:19;94273.66;;;16.82;37.53
39301;BME280;25019;42.626;23.380;2023-02-19T14:55:48;94236.22;;;16.58;37.22
39301;BME280;25019;42.626;23.380;2023-02-19T14:58:21;94259.31;;;16.73;37.24
39301;BME280;25019;42.626;23.380;2023-02-19T15:00:48;94277.06;;;16.88;37.43
39301;BME280;25019;42.626;23.380;2023-02-19T15:03:30;94264.00;;;16.81;37.16
39301;BME280;25019;42.626;23.380;2023-02-19T15:06:03;94262.84;;;16.68;37.27
39301;BME280;25019;42.626;23.380;2023-02-19T15:08:37;94240.03;;;16.32;38.07
39301;BME280;25019;42.626;23.380;2023-02-19T15:11:09;94251.31;;;16.29;38.07
39301;BME280;25019;42.626;23.380;2023-02-19T15:13:36;94257.81;;;16.23;38.42
39301;BME280;25019;42.626;23.380;2023-02-19T15:16:03;94259.66;;;16.28;38.50
39301;BME280;25019;42.626;23.380;2023-02-19T15:18:29;94244.28;;;16.14;38.63
39301;BME280;25019;42.626;23.380;2023-02-19T15:21:02;94254.97;;;16.14;38.53
39301;BME280;25019;42.626;23.380;2023-02-19T15:23:29;94202.97;;;15.72;38.71